sensor_id;sensor_type;location;lat;lon;timestamp;temperature;humidity
23562;DHT22;11959;49.418;8.728;2022-12-18T00:01:02;-5.90;99.90
23562;DHT22;11959;49.418;8.728;2022-12-18T00:03:32;-5.90;99.90
23562;DHT22;11959;49.418;8.728;2022-12-18T00:05:58;-5.90;99.90
23562;DHT22;11959;49.418;8.728;2022-12-18T00:08:24;-5.90;99.90
23562;DHT22;11959;49.418;8.728;2022-12-18T00:10:50;-5.90;99.90
23562;DHT22;11959;49.418;8.728;2022-12-18T00:13:15;-5.90;99.90
23562;DHT22;11959;49.418;8.728;2022-12-18T00:15:41;-5.90;99.90
23562;DHT22;11959;49.418;8.728;2022-12-18T00:18:07;-5.90;99.90
23562;DHT22;11959;49.418;8.728;2022-12-18T00:20:37;-5.90;99.90
23562;DHT22;11959;49.418;8.728;2022-12-18T00:23:04;-5.90;99.90
23562;DHT22;11959;49.418;8.728;2022-12-18T00:25:35;-5.90;99.90
23562;DHT22;11959;49.418;8.728;2022-12-18T00:28:02;-5.90;99.90
23562;DHT22;11959;49.418;8.728;2022-12-18T00:30:28;-5.90;99.90
23562;DHT22;11959;49.418;8.728;2022-12-18T00:32:54;-5.90;99.90
23562;DHT22;11959;49.418;8.728;2022-12-18T00:35:19;-5.90;99.90
23562;DHT22;11959;49.418;8.728;2022-12-18T00:37:45;-5.80;99.90
23562;DHT22;11959;49.418;8.728;2022-12-18T00:40:11;-5.80;99.90
23562;DHT22;11959;49.418;8.728;2022-12-18T00:42:37;-5.80;99.90
23562;DHT22;11959;49.418;8.728;2022-12-18T00:45:21;-5.80;99.90
23562;DHT22;11959;49.418;8.728;2022-12-18T00:47:47;-5.70;99.90
23562;DHT22;11959;49.418;8.728;2022-12-18T00:50:13;-5.70;99.90
23562;DHT22;11959;49.418;8.728;2022-12-18T00:52:38;-5.70;99.90
23562;DHT22;11959;49.418;8.728;2022-12-18T00:55:04;-5.70;99.90
23562;DHT22;11959;49.418;8.728;2022-12-18T00:57:30;-5.60;99.90
23562;DHT22;11959;49.418;8.728;2022-12-18T00:59:56;-5.60;99.90
23562;DHT22;11959;49.418;8.728;2022-12-18T01:02:21;-5.70;99.90
23562;DHT22;11959;49.418;8.728;2022-12-18T01:04:47;-5.70;99.90
23562;DHT22;11959;49.418;8.728;2022-12-18T01:07:13;-5.70;99.90
23562;DHT22;11959;49.418;8.728;2022-12-18T01:09:38;-5.80;99.90
23562;DHT22;11959;49.418;8.728;2022-12-18T01:12:04;-5.80;99.90
23562;DHT22;11959;49.418;8.728;2022-12-18T01:14:30;-5.80;99.90
23562;DHT22;11959;49.418;8.728;2022-12-18T01:16:55;-5.80;99.90
23562;DHT22;11959;49.418;8.728;2022-12-18T01:19:22;-5.80;99.90
23562;DHT22;11959;49.418;8.728;2022-12-18T01:21:49;-5.80;99.90
23562;DHT22;11959;49.418;8.728;2022-12-18T01:24:15;-5.70;99.90
23562;DHT22;11959;49.418;8.728;2022-12-18T01:26:40;-5.70;99.90
23562;DHT22;11959;49.418;8.728;2022-12-18T01:29:06;-5.70;99.90
23562;DHT22;11959;49.418;8.728;2022-12-18T01:31:33;-5.70;99.90
23562;DHT22;11959;49.418;8.728;2022-12-18T01:34:04;-5.60;99.90
23562;DHT22;11959;49.418;8.728;2022-12-18T01:36:35;-5.60;99.90
23562;DHT22;11959;49.418;8.728;2022-12-18T01:39:04;-5.60;99.90
23562;DHT22;11959;49.418;8.728;2022-12-18T01:41:31;-5.60;99.90
23562;DHT22;11959;49.418;8.728;2022-12-18T01:47:25;-5.60;99.90
23562;DHT22;11959;49.418;8.728;2022-12-18T01:49:52;-5.60;99.90
23562;DHT22;11959;49.418;8.728;2022-12-18T01:52:18;-5.60;99.90
23562;DHT22;11959;49.418;8.728;2022-12-18T01:54:46;-5.60;99.90
23562;DHT22;11959;49.418;8.728;2022-12-18T01:57:12;-5.60;99.90
23562;DHT22;11959;49.418;8.728;2022-12-18T01:59:40;-5.60;99.90
23562;DHT22;11959;49.418;8.728;2022-12-18T02:02:07;-5.60;99.90
23562;DHT22;11959;49.418;8.728;2022-12-18T02:04:33;-5.60;99.90
23562;DHT22;11959;49.418;8.728;2022-12-18T02:07:38;-5.60;99.90
23562;DHT22;11959;49.418;8.728;2022-12-18T02:10:21;-5.50;99.90
23562;DHT22;11959;49.418;8.728;2022-12-18T02:12:56;-5.50;99.90
23562;DHT22;11959;49.418;8.728;2022-12-18T02:18:19;-5.60;99.90
23562;DHT22;11959;49.418;8.728;2022-12-18T02:20:54;-5.60;99.90
23562;DHT22;11959;49.418;8.728;2022-12-18T02:23:36;-5.60;99.90
23562;DHT22;11959;49.418;8.728;2022-12-18T02:26:57;-5.60;99.90
23562;DHT22;11959;49.418;8.728;2022-12-18T02:29:25;-5.70;99.90
23562;DHT22;11959;49.418;8.728;2022-12-18T02:31:57;-5.60;99.90
23562;DHT22;11959;49.418;8.728;2022-12-18T02:34:28;-5.70;99.90
23562;DHT22;11959;49.418;8.728;2022-12-18T02:36:57;-5.60;99.90
23562;DHT22;11959;49.418;8.728;2022-12-18T02:39:25;-5.60;99.90
23562;DHT22;11959;49.418;8.728;2022-12-18T02:41:52;-5.50;99.90
23562;DHT22;11959;49.418;8.728;2022-12-18T02:44:18;-5.50;99.90
23562;DHT22;11959;49.418;8.728;2022-12-18T02:46:50;-5.50;99.90
23562;DHT22;11959;49.418;8.728;2022-12-18T02:52:34;-5.50;99.90
23562;DHT22;11959;49.418;8.728;2022-12-18T02:55:19;-5.50;99.90
23562;DHT22;11959;49.418;8.728;2022-12-18T02:58:11;-5.50;99.90
23562;DHT22;11959;49.418;8.728;2022-12-18T03:01:03;-5.60;99.90
23562;DHT22;11959;49.418;8.728;2022-12-18T03:03:58;-5.60;99.90
23562;DHT22;11959;49.418;8.728;2022-12-18T03:06:29;-5.60;99.90
23562;DHT22;11959;49.418;8.728;2022-12-18T03:09:00;-5.60;99.90
23562;DHT22;11959;49.418;8.728;2022-12-18T03:11:31;-5.50;99.90
23562;DHT22;11959;49.418;8.728;2022-12-18T03:14:19;-5.40;99.90
23562;DHT22;11959;49.418;8.728;2022-12-18T03:16:47;-5.30;99.90
23562;DHT22;11959;49.418;8.728;2022-12-18T03:19:17;-5.30;99.90
23562;DHT22;11959;49.418;8.728;2022-12-18T03:21:51;-5.40;99.90
23562;DHT22;11959;49.418;8.728;2022-12-18T03:24:18;-5.40;99.90
23562;DHT22;11959;49.418;8.728;2022-12-18T03:26:47;-5.40;99.90
23562;DHT22;11959;49.418;8.728;2022-12-18T03:32:01;-5.50;99.90
23562;DHT22;11959;49.418;8.728;2022-12-18T03:34:30;-5.50;99.90
23562;DHT22;11959;49.418;8.728;2022-12-18T03:36:57;-5.50;99.90
23562;DHT22;11959;49.418;8.728;2022-12-18T03:39:24;-5.50;99.90
23562;DHT22;11959;49.418;8.728;2022-12-18T03:52:25;-5.50;99.90
23562;DHT22;11959;49.418;8.728;2022-12-18T03:54:52;-5.50;99.90
23562;DHT22;11959;49.418;8.728;2022-12-18T03:57:23;-5.60;99.90
23562;DHT22;11959;49.418;8.728;2022-12-18T03:59:56;-5.60;99.90
23562;DHT22;11959;49.418;8.728;2022-12-18T04:02:24;-5.60;99.90
23562;DHT22;11959;49.418;8.728;2022-12-18T04:04:53;-5.60;99.90
23562;DHT22;11959;49.418;8.728;2022-12-18T04:07:20;-5.50;99.90
23562;DHT22;11959;49.418;8.728;2022-12-18T04:09:48;-5.30;99.90
23562;DHT22;11959;49.418;8.728;2022-12-18T04:12:14;-5.30;99.90
23562;DHT22;11959;49.418;8.728;2022-12-18T04:14:40;-5.30;99.90
23562;DHT22;11959;49.418;8.728;2022-12-18T04:17:06;-5.30;99.90
23562;DHT22;11959;49.418;8.728;2022-12-18T04:19:31;-5.30;99.90
23562;DHT22;11959;49.418;8.728;2022-12-18T04:21:57;-5.30;99.90
23562;DHT22;11959;49.418;8.728;2022-12-18T04:24:23;-5.40;99.90
23562;DHT22;11959;49.418;8.728;2022-12-18T04:26:49;-5.40;99.90
23562;DHT22;11959;49.418;8.728;2022-12-18T04:29:14;-5.40;99.90
23562;DHT22;11959;49.418;8.728;2022-12-18T04:31:40;-5.50;99.90
23562;DHT22;11959;49.418;8.728;2022-12-18T04:34:06;-5.60;99.90
23562;DHT22;11959;49.418;8.728;2022-12-18T04:36:31;-5.60;99.90
23562;DHT22;11959;49.418;8.728;2022-12-18T04:38:57;-5.70;99.90
23562;DHT22;11959;49.418;8.728;2022-12-18T04:41:23;-5.70;99.90
23562;DHT22;11959;49.418;8.728;2022-12-18T04:43:48;-5.80;99.90
23562;DHT22;11959;49.418;8.728;2022-12-18T04:46:14;-5.70;99.90
23562;DHT22;11959;49.418;8.728;2022-12-18T04:48:40;-5.70;99.90
23562;DHT22;11959;49.418;8.728;2022-12-18T04:51:06;-5.60;99.90
23562;DHT22;11959;49.418;8.728;2022-12-18T04:53:32;-5.50;99.90
23562;DHT22;11959;49.418;8.728;2022-12-18T04:56:12;-5.40;99.90
23562;DHT22;11959;49.418;8.728;2022-12-18T04:58:40;-5.30;99.90
23562;DHT22;11959;49.418;8.728;2022-12-18T05:01:06;-5.20;99.90
23562;DHT22;11959;49.418;8.728;2022-12-18T05:03:33;-5.10;99.90
23562;DHT22;11959;49.418;8.728;2022-12-18T05:06:00;-5.10;99.90
23562;DHT22;11959;49.418;8.728;2022-12-18T05:08:26;-5.10;99.90
23562;DHT22;11959;49.418;8.728;2022-12-18T05:11:10;-5.00;99.90
23562;DHT22;11959;49.418;8.728;2022-12-18T05:13:37;-5.00;99.90
23562;DHT22;11959;49.418;8.728;2022-12-18T05:16:03;-4.90;99.90
23562;DHT22;11959;49.418;8.728;2022-12-18T05:18:30;-4.80;99.90
23562;DHT22;11959;49.418;8.728;2022-12-18T05:20:55;-4.80;99.90
23562;DHT22;11959;49.418;8.728;2022-12-18T05:23:23;-4.80;99.90
23562;DHT22;11959;49.418;8.728;2022-12-18T05:25:59;-4.80;99.90
23562;DHT22;11959;49.418;8.728;2022-12-18T05:28:27;-4.90;99.90
23562;DHT22;11959;49.418;8.728;2022-12-18T05:30:56;-5.00;99.90
23562;DHT22;11959;49.418;8.728;2022-12-18T05:33:24;-5.10;99.90
23562;DHT22;11959;49.418;8.728;2022-12-18T05:35:55;-5.20;99.90
23562;DHT22;11959;49.418;8.728;2022-12-18T05:38:22;-5.10;99.90
23562;DHT22;11959;49.418;8.728;2022-12-18T05:40:49;-5.20;99.90
23562;DHT22;11959;49.418;8.728;2022-12-18T05:43:15;-5.20;99.90
23562;DHT22;11959;49.418;8.728;2022-12-18T05:45:41;-5.10;99.90
23562;DHT22;11959;49.418;8.728;2022-12-18T05:48:08;-5.00;99.90
23562;DHT22;11959;49.418;8.728;2022-12-18T05:50:35;-5.00;99.90
23562;DHT22;11959;49.418;8.728;2022-12-18T05:53:02;-4.80;99.90
23562;DHT22;11959;49.418;8.728;2022-12-18T05:55:27;-4.80;99.90
23562;DHT22;11959;49.418;8.728;2022-12-18T05:57:53;-4.70;99.90
23562;DHT22;11959;49.418;8.728;2022-12-18T06:00:19;-4.60;99.90
23562;DHT22;11959;49.418;8.728;2022-12-18T06:02:47;-4.60;99.90
23562;DHT22;11959;49.418;8.728;2022-12-18T06:05:13;-4.50;99.90
23562;DHT22;11959;49.418;8.728;2022-12-18T06:07:39;-4.50;99.90
23562;DHT22;11959;49.418;8.728;2022-12-18T06:10:05;-4.50;99.90
23562;DHT22;11959;49.418;8.728;2022-12-18T06:12:31;-4.50;99.90
23562;DHT22;11959;49.418;8.728;2022-12-18T06:14:59;-4.40;99.90
23562;DHT22;11959;49.418;8.728;2022-12-18T06:17:30;-4.40;99.90
23562;DHT22;11959;49.418;8.728;2022-12-18T06:19:56;-4.30;99.90
23562;DHT22;11959;49.418;8.728;2022-12-18T06:22:22;-4.30;99.90
23562;DHT22;11959;49.418;8.728;2022-12-18T06:24:47;-4.30;99.90
23562;DHT22;11959;49.418;8.728;2022-12-18T06:27:13;-4.20;99.90
23562;DHT22;11959;49.418;8.728;2022-12-18T06:29:39;-4.20;99.90
23562;DHT22;11959;49.418;8.728;2022-12-18T06:32:05;-4.20;99.90
23562;DHT22;11959;49.418;8.728;2022-12-18T06:34:31;-4.20;99.90
23562;DHT22;11959;49.418;8.728;2022-12-18T06:36:56;-4.20;99.90
23562;DHT22;11959;49.418;8.728;2022-12-18T06:39:22;-4.20;99.90
23562;DHT22;11959;49.418;8.728;2022-12-18T06:41:47;-4.20;99.90
23562;DHT22;11959;49.418;8.728;2022-12-18T06:44:13;-4.10;99.90
23562;DHT22;11959;49.418;8.728;2022-12-18T06:46:39;-4.10;99.90
23562;DHT22;11959;49.418;8.728;2022-12-18T06:49:04;-4.10;99.90
23562;DHT22;11959;49.418;8.728;2022-12-18T06:51:30;-4.20;99.90
23562;DHT22;11959;49.418;8.728;2022-12-18T06:53:56;-4.10;99.90
23562;DHT22;11959;49.418;8.728;2022-12-18T06:56:22;-4.10;99.90
23562;DHT22;11959;49.418;8.728;2022-12-18T06:58:50;-4.20;99.90
23562;DHT22;11959;49.418;8.728;2022-12-18T07:01:16;-4.30;99.90
23562;DHT22;11959;49.418;8.728;2022-12-18T07:03:42;-4.30;99.90
23562;DHT22;11959;49.418;8.728;2022-12-18T07:06:16;-4.30;99.90
23562;DHT22;11959;49.418;8.728;2022-12-18T07:08:43;-4.30;99.90
23562;DHT22;11959;49.418;8.728;2022-12-18T07:11:09;-4.20;99.90
23562;DHT22;11959;49.418;8.728;2022-12-18T07:13:34;-4.30;99.90
23562;DHT22;11959;49.418;8.728;2022-12-18T07:16:08;-4.30;99.90
23562;DHT22;11959;49.418;8.728;2022-12-18T07:18:34;-4.30;99.90
23562;DHT22;11959;49.418;8.728;2022-12-18T07:21:05;-4.30;99.90
23562;DHT22;11959;49.418;8.728;2022-12-18T07:23:32;-4.30;99.90
23562;DHT22;11959;49.418;8.728;2022-12-18T07:26:04;-4.30;99.90
23562;DHT22;11959;49.418;8.728;2022-12-18T07:28:31;-4.30;99.90
23562;DHT22;11959;49.418;8.728;2022-12-18T07:30:56;-4.30;99.90
23562;DHT22;11959;49.418;8.728;2022-12-18T07:33:22;-4.40;99.90
23562;DHT22;11959;49.418;8.728;2022-12-18T07:35:48;-4.40;99.90
23562;DHT22;11959;49.418;8.728;2022-12-18T07:38:13;-4.40;99.90
23562;DHT22;11959;49.418;8.728;2022-12-18T07:40:39;-4.40;99.90
23562;DHT22;11959;49.418;8.728;2022-12-18T07:43:05;-4.40;99.90
23562;DHT22;11959;49.418;8.728;2022-12-18T07:45:30;-4.40;99.90
23562;DHT22;11959;49.418;8.728;2022-12-18T07:47:56;-4.40;99.90
23562;DHT22;11959;49.418;8.728;2022-12-18T07:50:21;-4.50;99.90
23562;DHT22;11959;49.418;8.728;2022-12-18T07:52:47;-4.50;99.90
23562;DHT22;11959;49.418;8.728;2022-12-18T07:55:13;-4.40;99.90
23562;DHT22;11959;49.418;8.728;2022-12-18T07:57:38;-4.40;99.90
23562;DHT22;11959;49.418;8.728;2022-12-18T08:00:05;-4.40;99.90
23562;DHT22;11959;49.418;8.728;2022-12-18T08:02:31;-4.40;99.90
23562;DHT22;11959;49.418;8.728;2022-12-18T08:04:57;-4.40;99.90
23562;DHT22;11959;49.418;8.728;2022-12-18T08:07:23;-4.30;99.90
23562;DHT22;11959;49.418;8.728;2022-12-18T08:09:49;-4.30;99.90
23562;DHT22;11959;49.418;8.728;2022-12-18T08:12:14;-4.40;99.90
23562;DHT22;11959;49.418;8.728;2022-12-18T08:14:40;-4.40;99.90
23562;DHT22;11959;49.418;8.728;2022-12-18T08:17:06;-4.40;99.90
23562;DHT22;11959;49.418;8.728;2022-12-18T08:19:32;-4.40;99.90
23562;DHT22;11959;49.418;8.728;2022-12-18T08:21:58;-4.30;99.90
23562;DHT22;11959;49.418;8.728;2022-12-18T08:24:23;-4.30;99.90
23562;DHT22;11959;49.418;8.728;2022-12-18T08:26:49;-4.30;99.90
23562;DHT22;11959;49.418;8.728;2022-12-18T08:29:14;-4.30;99.90
23562;DHT22;11959;49.418;8.728;2022-12-18T08:31:40;-4.30;99.90
23562;DHT22;11959;49.418;8.728;2022-12-18T08:34:06;-4.30;99.90
23562;DHT22;11959;49.418;8.728;2022-12-18T08:36:31;-4.30;99.90
23562;DHT22;11959;49.418;8.728;2022-12-18T08:38:57;-4.30;99.90
23562;DHT22;11959;49.418;8.728;2022-12-18T08:41:23;-4.30;99.90
23562;DHT22;11959;49.418;8.728;2022-12-18T08:43:49;-4.20;99.90
23562;DHT22;11959;49.418;8.728;2022-12-18T08:46:41;-4.20;99.90
23562;DHT22;11959;49.418;8.728;2022-12-18T08:49:08;-4.20;99.90
23562;DHT22;11959;49.418;8.728;2022-12-18T08:51:34;-4.20;99.90
23562;DHT22;11959;49.418;8.728;2022-12-18T08:54:01;-4.20;99.90
23562;DHT22;11959;49.418;8.728;2022-12-18T08:56:27;-4.20;99.90
23562;DHT22;11959;49.418;8.728;2022-12-18T08:58:54;-4.20;99.90
23562;DHT22;11959;49.418;8.728;2022-12-18T09:01:20;-4.20;99.90
23562;DHT22;11959;49.418;8.728;2022-12-18T09:03:46;-4.20;99.90
23562;DHT22;11959;49.418;8.728;2022-12-18T09:06:17;-4.10;99.90
23562;DHT22;11959;49.418;8.728;2022-12-18T09:08:44;-4.20;99.90
23562;DHT22;11959;49.418;8.728;2022-12-18T09:11:24;-4.10;99.90
23562;DHT22;11959;49.418;8.728;2022-12-18T09:13:51;-4.20;99.90
23562;DHT22;11959;49.418;8.728;2022-12-18T09:16:17;-4.10;99.90
23562;DHT22;11959;49.418;8.728;2022-12-18T09:18:42;-4.10;99.90
23562;DHT22;11959;49.418;8.728;2022-12-18T09:21:19;-4.10;99.90
23562;DHT22;11959;49.418;8.728;2022-12-18T09:23:50;-4.00;99.90
23562;DHT22;11959;49.418;8.728;2022-12-18T09:26:16;-4.10;99.90
23562;DHT22;11959;49.418;8.728;2022-12-18T09:28:43;-4.00;99.90
23562;DHT22;11959;49.418;8.728;2022-12-18T09:31:11;-4.00;99.90
23562;DHT22;11959;49.418;8.728;2022-12-18T09:33:37;-3.90;99.90
23562;DHT22;11959;49.418;8.728;2022-12-18T09:36:05;-3.90;99.90
23562;DHT22;11959;49.418;8.728;2022-12-18T09:38:31;-3.90;99.90
23562;DHT22;11959;49.418;8.728;2022-12-18T09:41:00;-3.80;99.90
23562;DHT22;11959;49.418;8.728;2022-12-18T09:43:37;-3.80;99.90
23562;DHT22;11959;49.418;8.728;2022-12-18T09:46:15;-3.80;99.90
23562;DHT22;11959;49.418;8.728;2022-12-18T09:48:47;-3.70;99.90
23562;DHT22;11959;49.418;8.728;2022-12-18T09:51:25;-3.70;99.90
23562;DHT22;11959;49.418;8.728;2022-12-18T09:53:57;-3.60;99.90
23562;DHT22;11959;49.418;8.728;2022-12-18T09:56:26;-3.60;99.90
23562;DHT22;11959;49.418;8.728;2022-12-18T09:58:58;-3.50;99.90
23562;DHT22;11959;49.418;8.728;2022-12-18T10:01:26;-3.50;99.90
23562;DHT22;11959;49.418;8.728;2022-12-18T10:03:53;-3.40;99.90
23562;DHT22;11959;49.418;8.728;2022-12-18T10:23:34;-3.20;99.90
23562;DHT22;11959;49.418;8.728;2022-12-18T10:28:13;-3.20;99.90
23562;DHT22;11959;49.418;8.728;2022-12-18T10:30:41;-3.10;99.90
23562;DHT22;11959;49.418;8.728;2022-12-18T10:33:13;-3.10;99.90
23562;DHT22;11959;49.418;8.728;2022-12-18T10:35:41;-3.10;99.90
23562;DHT22;11959;49.418;8.728;2022-12-18T10:38:24;-3.00;99.90
23562;DHT22;11959;49.418;8.728;2022-12-18T10:48:53;-2.80;99.90
23562;DHT22;11959;49.418;8.728;2022-12-18T10:51:36;-2.80;99.90
23562;DHT22;11959;49.418;8.728;2022-12-18T10:54:21;-2.70;99.90
23562;DHT22;11959;49.418;8.728;2022-12-18T10:56:47;-2.60;99.90
23562;DHT22;11959;49.418;8.728;2022-12-18T10:59:15;-2.50;99.90
23562;DHT22;11959;49.418;8.728;2022-12-18T11:01:53;-2.50;99.90
23562;DHT22;11959;49.418;8.728;2022-12-18T11:09:24;-2.40;99.90
23562;DHT22;11959;49.418;8.728;2022-12-18T11:11:58;-2.30;99.90
23562;DHT22;11959;49.418;8.728;2022-12-18T11:17:19;-2.30;99.90
23562;DHT22;11959;49.418;8.728;2022-12-18T11:19:52;-2.20;99.90
23562;DHT22;11959;49.418;8.728;2022-12-18T11:22:23;-2.20;99.90
23562;DHT22;11959;49.418;8.728;2022-12-18T11:24:58;-2.10;99.90
23562;DHT22;11959;49.418;8.728;2022-12-18T11:27:24;-2.10;99.90
23562;DHT22;11959;49.418;8.728;2022-12-18T11:29:51;-2.10;99.90
23562;DHT22;11959;49.418;8.728;2022-12-18T11:37:31;-1.90;99.90
23562;DHT22;11959;49.418;8.728;2022-12-18T11:40:10;-1.90;99.90
23562;DHT22;11959;49.418;8.728;2022-12-18T11:42:54;-1.80;99.90
23562;DHT22;11959;49.418;8.728;2022-12-18T11:45:31;-1.70;99.90
23562;DHT22;11959;49.418;8.728;2022-12-18T11:53:11;-1.60;99.90
23562;DHT22;11959;49.418;8.728;2022-12-18T11:55:48;-1.60;99.90
23562;DHT22;11959;49.418;8.728;2022-12-18T11:58:30;-1.50;99.90
23562;DHT22;11959;49.418;8.728;2022-12-18T12:17:07;-1.40;99.90
23562;DHT22;11959;49.418;8.728;2022-12-18T12:38:35;-1.10;99.90
23562;DHT22;11959;49.418;8.728;2022-12-18T12:41:08;-1.10;99.90
23562;DHT22;11959;49.418;8.728;2022-12-18T12:43:57;-1.10;99.90
23562;DHT22;11959;49.418;8.728;2022-12-18T12:46:25;-1.00;99.90
23562;DHT22;11959;49.418;8.728;2022-12-18T12:49:04;-1.00;99.90
23562;DHT22;11959;49.418;8.728;2022-12-18T12:51:40;-1.00;99.90
23562;DHT22;11959;49.418;8.728;2022-12-18T12:54:15;-1.00;99.90
23562;DHT22;11959;49.418;8.728;2022-12-18T13:08:01;-0.90;99.90
23562;DHT22;11959;49.418;8.728;2022-12-18T13:10:41;-0.90;99.90
23562;DHT22;11959;49.418;8.728;2022-12-18T13:13:08;-1.00;99.90
23562;DHT22;11959;49.418;8.728;2022-12-18T13:25:59;-0.90;99.90
23562;DHT22;11959;49.418;8.728;2022-12-18T13:36:41;-0.90;99.90
23562;DHT22;11959;49.418;8.728;2022-12-18T13:39:54;-0.80;99.90
23562;DHT22;11959;49.418;8.728;2022-12-18T13:44:38;-0.90;99.90
23562;DHT22;11959;49.418;8.728;2022-12-18T13:47:36;-0.80;99.90
23562;DHT22;11959;49.418;8.728;2022-12-18T13:50:23;-0.90;99.90
23562;DHT22;11959;49.418;8.728;2022-12-18T13:52:50;-0.80;99.90
23562;DHT22;11959;49.418;8.728;2022-12-18T13:55:19;-0.90;99.90
23562;DHT22;11959;49.418;8.728;2022-12-18T13:57:45;-0.80;99.90
23562;DHT22;11959;49.418;8.728;2022-12-18T14:00:28;-0.80;99.90
23562;DHT22;11959;49.418;8.728;2022-12-18T14:02:56;-0.80;99.90
23562;DHT22;11959;49.418;8.728;2022-12-18T14:05:30;-0.80;99.90
23562;DHT22;11959;49.418;8.728;2022-12-18T14:08:04;-0.80;99.90
23562;DHT22;11959;49.418;8.728;2022-12-18T14:10:31;-0.80;99.90
23562;DHT22;11959;49.418;8.728;2022-12-18T14:13:06;-0.80;99.90
23562;DHT22;11959;49.418;8.728;2022-12-18T14:20:43;-0.80;99.90
23562;DHT22;11959;49.418;8.728;2022-12-18T14:23:31;-0.80;99.90
23562;DHT22;11959;49.418;8.728;2022-12-18T14:25:57;-0.90;99.90
23562;DHT22;11959;49.418;8.728;2022-12-18T14:28:23;-0.80;99.90
23562;DHT22;11959;49.418;8.728;2022-12-18T14:30:49;-0.80;99.90
23562;DHT22;11959;49.418;8.728;2022-12-18T14:33:18;-0.80;99.90
23562;DHT22;11959;49.418;8.728;2022-12-18T14:36:05;-0.70;99.90
23562;DHT22;11959;49.418;8.728;2022-12-18T14:38:38;-0.80;99.90
23562;DHT22;11959;49.418;8.728;2022-12-18T14:41:12;-0.70;99.90
23562;DHT22;11959;49.418;8.728;2022-12-18T14:43:43;-0.70;99.90
23562;DHT22;11959;49.418;8.728;2022-12-18T14:46:35;-0.70;99.90
23562;DHT22;11959;49.418;8.728;2022-12-18T14:51:32;-0.70;99.90
23562;DHT22;11959;49.418;8.728;2022-12-18T14:56:31;-0.70;99.90
23562;DHT22;11959;49.418;8.728;2022-12-18T15:01:36;-0.70;99.90
23562;DHT22;11959;49.418;8.728;2022-12-18T15:04:04;-0.70;99.90
23562;DHT22;11959;49.418;8.728;2022-12-18T15:06:36;-0.70;99.90
23562;DHT22;11959;49.418;8.728;2022-12-18T15:09:23;-0.80;99.90
23562;DHT22;11959;49.418;8.728;2022-12-18T15:11:56;-0.80;99.90
23562;DHT22;11959;49.418;8.728;2022-12-18T15:14:39;-0.90;99.90
23562;DHT22;11959;49.418;8.728;2022-12-18T15:17:18;-0.80;99.90
23562;DHT22;11959;49.418;8.728;2022-12-18T15:19:45;-0.90;99.90
23562;DHT22;11959;49.418;8.728;2022-12-18T15:22:22;-0.90;99.90
23562;DHT22;11959;49.418;8.728;2022-12-18T15:24:49;-0.90;99.90
23562;DHT22;11959;49.418;8.728;2022-12-18T15:27:27;-1.10;99.90
23562;DHT22;11959;49.418;8.728;2022-12-18T15:32:26;-1.00;99.90
23562;DHT22;11959;49.418;8.728;2022-12-18T15:35:03;-1.00;99.90
23562;DHT22;11959;49.418;8.728;2022-12-18T15:37:34;-1.00;99.90
23562;DHT22;11959;49.418;8.728;2022-12-18T15:40:00;-1.00;99.90
23562;DHT22;11959;49.418;8.728;2022-12-18T15:42:28;-1.00;99.90
23562;DHT22;11959;49.418;8.728;2022-12-18T15:45:13;-1.00;99.90
23562;DHT22;11959;49.418;8.728;2022-12-18T15:47:39;-1.00;99.90
23562;DHT22;11959;49.418;8.728;2022-12-18T15:50:05;-1.00;99.90
23562;DHT22;11959;49.418;8.728;2022-12-18T15:52:40;-1.00;99.90
23562;DHT22;11959;49.418;8.728;2022-12-18T15:55:15;-1.10;99.90
23562;DHT22;11959;49.418;8.728;2022-12-18T15:58:00;-1.10;99.90
23562;DHT22;11959;49.418;8.728;2022-12-18T16:00:26;-1.20;99.90
23562;DHT22;11959;49.418;8.728;2022-12-18T16:02:52;-1.20;99.90
23562;DHT22;11959;49.418;8.728;2022-12-18T16:05:19;-1.10;99.90
23562;DHT22;11959;49.418;8.728;2022-12-18T16:07:45;-1.20;99.90
23562;DHT22;11959;49.418;8.728;2022-12-18T16:10:11;-1.20;99.90
23562;DHT22;11959;49.418;8.728;2022-12-18T16:12:37;-1.10;99.90
23562;DHT22;11959;49.418;8.728;2022-12-18T16:15:04;-1.10;99.90
23562;DHT22;11959;49.418;8.728;2022-12-18T16:17:30;-1.10;99.90
23562;DHT22;11959;49.418;8.728;2022-12-18T16:19:56;-1.00;99.90
23562;DHT22;11959;49.418;8.728;2022-12-18T16:22:24;-1.00;99.90
23562;DHT22;11959;49.418;8.728;2022-12-18T16:24:51;-1.10;99.90
23562;DHT22;11959;49.418;8.728;2022-12-18T16:27:17;-1.00;99.90
23562;DHT22;11959;49.418;8.728;2022-12-18T16:29:43;-1.00;99.90
23562;DHT22;11959;49.418;8.728;2022-12-18T16:32:14;-1.10;99.90
23562;DHT22;11959;49.418;8.728;2022-12-18T16:34:41;-1.00;99.90
23562;DHT22;11959;49.418;8.728;2022-12-18T16:37:08;-1.00;99.90
23562;DHT22;11959;49.418;8.728;2022-12-18T16:39:35;-1.00;99.90
23562;DHT22;11959;49.418;8.728;2022-12-18T16:42:08;-1.00;99.90
23562;DHT22;11959;49.418;8.728;2022-12-18T16:44:35;-1.00;99.90
23562;DHT22;11959;49.418;8.728;2022-12-18T16:47:00;-1.00;99.90
23562;DHT22;11959;49.418;8.728;2022-12-18T16:49:27;-1.00;99.90
23562;DHT22;11959;49.418;8.728;2022-12-18T16:51:53;-0.90;99.90
23562;DHT22;11959;49.418;8.728;2022-12-18T16:54:19;-0.90;99.90
23562;DHT22;11959;49.418;8.728;2022-12-18T16:56:45;-0.90;99.90
23562;DHT22;11959;49.418;8.728;2022-12-18T16:59:14;-0.90;99.90
23562;DHT22;11959;49.418;8.728;2022-12-18T17:01:40;-0.90;99.90
23562;DHT22;11959;49.418;8.728;2022-12-18T17:04:06;-0.90;99.90
23562;DHT22;11959;49.418;8.728;2022-12-18T17:06:34;-1.00;99.90
23562;DHT22;11959;49.418;8.728;2022-12-18T17:09:02;-0.90;99.90
23562;DHT22;11959;49.418;8.728;2022-12-18T17:11:30;-0.90;99.90
23562;DHT22;11959;49.418;8.728;2022-12-18T17:13:56;-0.90;99.90
23562;DHT22;11959;49.418;8.728;2022-12-18T17:16:23;-0.90;99.90
23562;DHT22;11959;49.418;8.728;2022-12-18T17:18:49;-0.90;99.90
23562;DHT22;11959;49.418;8.728;2022-12-18T17:21:15;-0.80;99.90
23562;DHT22;11959;49.418;8.728;2022-12-18T17:23:42;-0.80;99.90
23562;DHT22;11959;49.418;8.728;2022-12-18T17:26:09;-0.80;99.90
23562;DHT22;11959;49.418;8.728;2022-12-18T17:28:37;-0.80;99.90
23562;DHT22;11959;49.418;8.728;2022-12-18T17:31:16;-0.80;99.90
23562;DHT22;11959;49.418;8.728;2022-12-18T17:33:42;-0.80;99.90
23562;DHT22;11959;49.418;8.728;2022-12-18T17:36:08;-0.80;99.90
23562;DHT22;11959;49.418;8.728;2022-12-18T17:38:35;-0.80;99.90
23562;DHT22;11959;49.418;8.728;2022-12-18T17:41:02;-0.80;99.90
23562;DHT22;11959;49.418;8.728;2022-12-18T17:43:28;-0.80;99.90
23562;DHT22;11959;49.418;8.728;2022-12-18T17:45:54;-0.90;99.90
23562;DHT22;11959;49.418;8.728;2022-12-18T17:48:20;-0.80;99.90
23562;DHT22;11959;49.418;8.728;2022-12-18T17:50:45;-0.80;99.90
23562;DHT22;11959;49.418;8.728;2022-12-18T17:53:11;-0.80;99.90
23562;DHT22;11959;49.418;8.728;2022-12-18T17:55:37;-0.80;99.90
23562;DHT22;11959;49.418;8.728;2022-12-18T17:58:02;-0.90;99.90
23562;DHT22;11959;49.418;8.728;2022-12-18T18:00:28;-0.90;99.90
23562;DHT22;11959;49.418;8.728;2022-12-18T18:02:54;-0.90;99.90
23562;DHT22;11959;49.418;8.728;2022-12-18T18:05:20;-0.90;99.90
23562;DHT22;11959;49.418;8.728;2022-12-18T18:07:46;-0.90;99.90
23562;DHT22;11959;49.418;8.728;2022-12-18T18:10:11;-0.90;99.90
23562;DHT22;11959;49.418;8.728;2022-12-18T18:12:37;-0.90;99.90
23562;DHT22;11959;49.418;8.728;2022-12-18T18:15:21;-0.90;99.90